sensor_id;sensor_type;location;lat;lon;timestamp;temperature;humidity
11246;DHT22;59870;50.106;8.580;2024-01-07T08:55:10;6.20;97.00
11246;DHT22;59870;50.106;8.580;2024-01-07T08:57:46;6.20;96.80
11246;DHT22;59870;50.106;8.580;2024-01-07T12:19:21;5.60;93.20
11246;DHT22;59870;50.106;8.580;2024-01-07T12:22:08;5.20;93.00
11246;DHT22;59870;50.106;8.580;2024-01-07T12:24:37;5.40;93.50
11246;DHT22;59870;50.106;8.580;2024-01-07T12:27:06;5.40;93.40
11246;DHT22;59870;50.106;8.580;2024-01-07T12:29:34;5.40;93.50
11246;DHT22;59870;50.106;8.580;2024-01-07T12:32:02;5.70;93.60
11246;DHT22;59870;50.106;8.580;2024-01-07T12:34:31;5.50;93.60
11246;DHT22;59870;50.106;8.580;2024-01-07T12:37:00;5.60;93.60
11246;DHT22;59870;50.106;8.580;2024-01-07T12:39:29;5.70;93.50
11246;DHT22;59870;50.106;8.580;2024-01-07T12:41:57;5.70;93.40
11246;DHT22;59870;50.106;8.580;2024-01-07T12:44:27;5.60;93.20
11246;DHT22;59870;50.106;8.580;2024-01-07T12:46:56;5.60;93.40
11246;DHT22;59870;50.106;8.580;2024-01-07T12:49:23;5.60;93.10
11246;DHT22;59870;50.106;8.580;2024-01-07T12:51:51;5.50;93.10
11246;DHT22;59870;50.106;8.580;2024-01-07T12:54:19;5.30;93.40
11246;DHT22;59870;50.106;8.580;2024-01-07T12:56:47;5.30;93.60
11246;DHT22;59870;50.106;8.580;2024-01-07T12:59:15;5.50;93.60
11246;DHT22;59870;50.106;8.580;2024-01-07T13:01:43;5.60;93.50
11246;DHT22;59870;50.106;8.580;2024-01-07T13:07:24;5.40;93.20
11246;DHT22;59870;50.106;8.580;2024-01-07T13:09:53;5.40;93.40
11246;DHT22;59870;50.106;8.580;2024-01-07T13:12:21;5.50;93.20
11246;DHT22;59870;50.106;8.580;2024-01-07T13:14:55;5.50;92.90
11246;DHT22;59870;50.106;8.580;2024-01-07T13:17:24;5.50;92.80
11246;DHT22;59870;50.106;8.580;2024-01-07T13:19:52;5.50;93.10
11246;DHT22;59870;50.106;8.580;2024-01-07T13:22:20;5.50;92.80
11246;DHT22;59870;50.106;8.580;2024-01-07T13:24:48;5.40;92.30
11246;DHT22;59870;50.106;8.580;2024-01-07T13:27:17;5.50;92.40
11246;DHT22;59870;50.106;8.580;2024-01-07T13:29:49;5.50;92.60
11246;DHT22;59870;50.106;8.580;2024-01-07T13:32:17;5.50;92.00
11246;DHT22;59870;50.106;8.580;2024-01-07T13:34:47;5.50;91.80
11246;DHT22;59870;50.106;8.580;2024-01-07T13:37:15;5.40;92.00
11246;DHT22;59870;50.106;8.580;2024-01-07T13:39:43;5.30;92.10
11246;DHT22;59870;50.106;8.580;2024-01-07T13:42:10;5.30;92.10
11246;DHT22;59870;50.106;8.580;2024-01-07T13:44:38;5.20;92.40
11246;DHT22;59870;50.106;8.580;2024-01-07T13:47:13;5.30;92.30
11246;DHT22;59870;50.106;8.580;2024-01-07T13:49:41;5.20;92.20
11246;DHT22;59870;50.106;8.580;2024-01-07T13:52:09;5.20;91.70
11246;DHT22;59870;50.106;8.580;2024-01-07T13:54:40;5.10;92.00
11246;DHT22;59870;50.106;8.580;2024-01-07T13:57:07;5.00;91.60
11246;DHT22;59870;50.106;8.580;2024-01-07T13:59:36;4.90;91.70
11246;DHT22;59870;50.106;8.580;2024-01-07T14:02:06;4.80;91.50
11246;DHT22;59870;50.106;8.580;2024-01-07T14:04:34;4.90;91.40
11246;DHT22;59870;50.106;8.580;2024-01-07T14:07:02;4.90;91.10
11246;DHT22;59870;50.106;8.580;2024-01-07T14:09:31;4.90;90.90
11246;DHT22;59870;50.106;8.580;2024-01-07T14:11:59;4.90;90.70
11246;DHT22;59870;50.106;8.580;2024-01-07T14:14:28;5.10;90.90
11246;DHT22;59870;50.106;8.580;2024-01-07T14:16:58;4.80;91.00
11246;DHT22;59870;50.106;8.580;2024-01-07T14:19:26;4.90;91.30
11246;DHT22;59870;50.106;8.580;2024-01-07T14:21:55;4.80;91.60
11246;DHT22;59870;50.106;8.580;2024-01-07T14:24:24;4.70;91.80
11246;DHT22;59870;50.106;8.580;2024-01-07T14:26:52;4.90;92.10
11246;DHT22;59870;50.106;8.580;2024-01-07T14:29:24;4.60;91.90
11246;DHT22;59870;50.106;8.580;2024-01-07T14:31:51;4.60;91.80
11246;DHT22;59870;50.106;8.580;2024-01-07T14:34:19;4.50;91.90
11246;DHT22;59870;50.106;8.580;2024-01-07T14:36:48;4.80;92.20
11246;DHT22;59870;50.106;8.580;2024-01-07T14:39:16;4.80;92.00
11246;DHT22;59870;50.106;8.580;2024-01-07T14:44:54;4.40;91.90
11246;DHT22;59870;50.106;8.580;2024-01-07T14:47:24;4.70;91.90
11246;DHT22;59870;50.106;8.580;2024-01-07T14:49:53;4.40;91.60
11246;DHT22;59870;50.106;8.580;2024-01-07T14:52:21;4.60;91.50
11246;DHT22;59870;50.106;8.580;2024-01-07T14:54:48;4.60;91.50
11246;DHT22;59870;50.106;8.580;2024-01-07T14:57:17;4.10;91.30
11246;DHT22;59870;50.106;8.580;2024-01-07T14:59:45;4.10;91.70
11246;DHT22;59870;50.106;8.580;2024-01-07T15:35:34;3.10;89.00
11246;DHT22;59870;50.106;8.580;2024-01-07T15:47:31;3.00;89.80
11246;DHT22;59870;50.106;8.580;2024-01-07T15:50:03;3.00;88.60
11246;DHT22;59870;50.106;8.580;2024-01-07T15:52:31;2.90;88.60
11246;DHT22;59870;50.106;8.580;2024-01-07T16:39:19;2.60;87.40
11246;DHT22;59870;50.106;8.580;2024-01-07T16:41:49;2.60;86.80
11246;DHT22;59870;50.106;8.580;2024-01-07T16:53:23;2.50;86.60
11246;DHT22;59870;50.106;8.580;2024-01-07T17:43:30;2.30;83.30
11246;DHT22;59870;50.106;8.580;2024-01-07T17:46:08;2.10;82.90
11246;DHT22;59870;50.106;8.580;2024-01-07T17:48:39;2.70;82.90
11246;DHT22;59870;50.106;8.580;2024-01-07T17:51:06;3.00;83.20
11246;DHT22;59870;50.106;8.580;2024-01-07T17:53:41;2.60;81.80
11246;DHT22;59870;50.106;8.580;2024-01-07T17:56:18;2.60;82.10
11246;DHT22;59870;50.106;8.580;2024-01-07T17:58:47;2.60;82.40
11246;DHT22;59870;50.106;8.580;2024-01-07T18:01:18;2.80;82.20
11246;DHT22;59870;50.106;8.580;2024-01-07T18:03:53;2.60;83.10
11246;DHT22;59870;50.106;8.580;2024-01-07T18:06:22;2.60;82.10
11246;DHT22;59870;50.106;8.580;2024-01-07T18:08:50;2.80;82.10
11246;DHT22;59870;50.106;8.580;2024-01-07T18:11:20;2.50;82.10
11246;DHT22;59870;50.106;8.580;2024-01-07T18:13:48;2.70;81.70
11246;DHT22;59870;50.106;8.580;2024-01-07T18:16:16;2.40;81.50
11246;DHT22;59870;50.106;8.580;2024-01-07T18:18:44;2.60;82.30
11246;DHT22;59870;50.106;8.580;2024-01-07T18:21:15;2.40;82.00
11246;DHT22;59870;50.106;8.580;2024-01-07T18:23:43;2.50;81.90
11246;DHT22;59870;50.106;8.580;2024-01-07T18:26:13;2.60;82.30
11246;DHT22;59870;50.106;8.580;2024-01-07T18:28:41;2.30;82.00
11246;DHT22;59870;50.106;8.580;2024-01-07T18:31:12;2.40;82.50
11246;DHT22;59870;50.106;8.580;2024-01-07T18:33:40;2.60;82.40
11246;DHT22;59870;50.106;8.580;2024-01-07T18:36:22;2.40;82.20
11246;DHT22;59870;50.106;8.580;2024-01-07T18:38:56;2.40;82.50
11246;DHT22;59870;50.106;8.580;2024-01-07T18:41:28;2.30;82.20
11246;DHT22;59870;50.106;8.580;2024-01-07T19:28:26;2.80;82.80
11246;DHT22;59870;50.106;8.580;2024-01-07T19:31:01;2.90;83.00
11246;DHT22;59870;50.106;8.580;2024-01-07T19:33:30;2.90;82.70
11246;DHT22;59870;50.106;8.580;2024-01-07T19:36:03;2.90;82.10
11246;DHT22;59870;50.106;8.580;2024-01-07T19:38:35;2.90;82.30
11246;DHT22;59870;50.106;8.580;2024-01-07T19:41:30;2.50;82.60
11246;DHT22;59870;50.106;8.580;2024-01-07T19:44:06;2.90;83.30
11246;DHT22;59870;50.106;8.580;2024-01-07T19:52:55;2.90;82.60
11246;DHT22;59870;50.106;8.580;2024-01-07T20:01:35;2.70;83.60
11246;DHT22;59870;50.106;8.580;2024-01-07T20:04:04;2.60;83.60
11246;DHT22;59870;50.106;8.580;2024-01-07T20:06:58;2.70;84.10
11246;DHT22;59870;50.106;8.580;2024-01-07T20:09:30;2.80;84.20
11246;DHT22;59870;50.106;8.580;2024-01-07T20:11:58;3.00;84.20
11246;DHT22;59870;50.106;8.580;2024-01-07T20:14:34;2.80;83.70
11246;DHT22;59870;50.106;8.580;2024-01-07T20:17:05;3.00;83.40
11246;DHT22;59870;50.106;8.580;2024-01-07T20:19:36;3.10;83.10
11246;DHT22;59870;50.106;8.580;2024-01-07T20:22:06;3.10;83.40
11246;DHT22;59870;50.106;8.580;2024-01-07T20:24:36;2.90;82.20
11246;DHT22;59870;50.106;8.580;2024-01-07T20:27:05;2.90;82.10
11246;DHT22;59870;50.106;8.580;2024-01-07T20:29:39;2.70;82.80
11246;DHT22;59870;50.106;8.580;2024-01-07T20:32:12;3.00;82.80
11246;DHT22;59870;50.106;8.580;2024-01-07T20:37:54;2.80;82.80
11246;DHT22;59870;50.106;8.580;2024-01-07T20:40:23;3.20;83.00
11246;DHT22;59870;50.106;8.580;2024-01-07T20:42:52;3.00;82.10
11246;DHT22;59870;50.106;8.580;2024-01-07T20:45:21;3.30;81.70
11246;DHT22;59870;50.106;8.580;2024-01-07T20:47:53;3.10;80.80
11246;DHT22;59870;50.106;8.580;2024-01-07T20:50:21;3.10;81.00
11246;DHT22;59870;50.106;8.580;2024-01-07T20:52:48;3.10;81.00
11246;DHT22;59870;50.106;8.580;2024-01-07T20:55:17;3.10;81.00
11246;DHT22;59870;50.106;8.580;2024-01-07T20:57:45;3.10;80.80
11246;DHT22;59870;50.106;8.580;2024-01-07T21:00:15;3.40;80.90
11246;DHT22;59870;50.106;8.580;2024-01-07T21:02:43;3.10;80.20
11246;DHT22;59870;50.106;8.580;2024-01-07T21:05:13;3.10;80.80
11246;DHT22;59870;50.106;8.580;2024-01-07T21:07:46;3.30;81.30
11246;DHT22;59870;50.106;8.580;2024-01-07T21:10:58;3.30;80.50
11246;DHT22;59870;50.106;8.580;2024-01-07T21:13:29;3.00;80.30
11246;DHT22;59870;50.106;8.580;2024-01-07T21:16:24;3.30;80.50
11246;DHT22;59870;50.106;8.580;2024-01-07T21:19:05;3.10;81.30
11246;DHT22;59870;50.106;8.580;2024-01-07T21:21:35;3.10;80.90
11246;DHT22;59870;50.106;8.580;2024-01-07T21:24:13;3.40;81.50
11246;DHT22;59870;50.106;8.580;2024-01-07T21:26:50;3.30;80.70
11246;DHT22;59870;50.106;8.580;2024-01-07T21:29:39;3.10;81.40
11246;DHT22;59870;50.106;8.580;2024-01-07T21:32:39;3.10;81.60
11246;DHT22;59870;50.106;8.580;2024-01-07T21:36:04;3.00;81.40
11246;DHT22;59870;50.106;8.580;2024-01-07T21:39:11;3.00;81.60
11246;DHT22;59870;50.106;8.580;2024-01-07T21:42:11;3.40;81.20
11246;DHT22;59870;50.106;8.580;2024-01-07T21:44:40;3.20;81.00
11246;DHT22;59870;50.106;8.580;2024-01-07T21:47:08;3.20;81.00
11246;DHT22;59870;50.106;8.580;2024-01-07T21:49:40;3.30;80.90
11246;DHT22;59870;50.106;8.580;2024-01-07T21:52:13;3.30;81.00
11246;DHT22;59870;50.106;8.580;2024-01-07T21:54:43;3.30;80.80
11246;DHT22;59870;50.106;8.580;2024-01-07T21:57:14;3.40;80.80
11246;DHT22;59870;50.106;8.580;2024-01-07T21:59:43;3.30;81.00
11246;DHT22;59870;50.106;8.580;2024-01-07T22:02:11;3.60;81.30
11246;DHT22;59870;50.106;8.580;2024-01-07T22:04:39;3.20;80.80
11246;DHT22;59870;50.106;8.580;2024-01-07T22:07:08;3.20;81.50
11246;DHT22;59870;50.106;8.580;2024-01-07T22:09:35;3.10;81.30
11246;DHT22;59870;50.106;8.580;2024-01-07T22:12:03;3.00;81.60
11246;DHT22;59870;50.106;8.580;2024-01-07T22:14:31;3.00;82.20
11246;DHT22;59870;50.106;8.580;2024-01-07T22:17:02;3.30;82.40
11246;DHT22;59870;50.106;8.580;2024-01-07T22:19:30;3.10;81.80
11246;DHT22;59870;50.106;8.580;2024-01-07T22:22:01;3.10;82.30
11246;DHT22;59870;50.106;8.580;2024-01-07T22:24:29;3.30;82.10
11246;DHT22;59870;50.106;8.580;2024-01-07T22:26:59;3.40;82.10
11246;DHT22;59870;50.106;8.580;2024-01-07T22:29:28;3.50;81.70
11246;DHT22;59870;50.106;8.580;2024-01-07T22:31:56;3.30;81.50
11246;DHT22;59870;50.106;8.580;2024-01-07T22:34:24;3.50;81.40
11246;DHT22;59870;50.106;8.580;2024-01-07T22:36:52;3.30;81.50
11246;DHT22;59870;50.106;8.580;2024-01-07T22:39:47;3.30;82.00
11246;DHT22;59870;50.106;8.580;2024-01-07T22:42:16;3.40;82.30
11246;DHT22;59870;50.106;8.580;2024-01-07T22:44:43;3.40;81.20
11246;DHT22;59870;50.106;8.580;2024-01-07T22:47:11;3.30;81.10
11246;DHT22;59870;50.106;8.580;2024-01-07T22:49:38;3.20;81.50
11246;DHT22;59870;50.106;8.580;2024-01-07T22:52:07;3.50;82.00
11246;DHT22;59870;50.106;8.580;2024-01-07T22:54:37;3.60;82.20
11246;DHT22;59870;50.106;8.580;2024-01-07T22:57:09;3.60;81.20
11246;DHT22;59870;50.106;8.580;2024-01-07T22:59:40;3.50;81.00
11246;DHT22;59870;50.106;8.580;2024-01-07T23:02:15;3.20;80.90
11246;DHT22;59870;50.106;8.580;2024-01-07T23:04:51;3.40;81.80
11246;DHT22;59870;50.106;8.580;2024-01-07T23:08:04;3.40;81.80
11246;DHT22;59870;50.106;8.580;2024-01-07T23:10:35;3.30;81.20
11246;DHT22;59870;50.106;8.580;2024-01-07T23:13:48;3.50;80.90
11246;DHT22;59870;50.106;8.580;2024-01-07T23:16:18;3.30;80.70
11246;DHT22;59870;50.106;8.580;2024-01-07T23:18:47;3.10;79.40
11246;DHT22;59870;50.106;8.580;2024-01-07T23:21:22;3.30;79.90
11246;DHT22;59870;50.106;8.580;2024-01-07T23:23:57;3.00;80.00
11246;DHT22;59870;50.106;8.580;2024-01-07T23:26:26;3.50;79.40
11246;DHT22;59870;50.106;8.580;2024-01-07T23:28:56;3.40;80.00
11246;DHT22;59870;50.106;8.580;2024-01-07T23:31:28;3.40;80.50
11246;DHT22;59870;50.106;8.580;2024-01-07T23:34:05;3.20;80.90
11246;DHT22;59870;50.106;8.580;2024-01-07T23:37:04;3.20;79.90
11246;DHT22;59870;50.106;8.580;2024-01-07T23:39:36;2.90;79.90
11246;DHT22;59870;50.106;8.580;2024-01-07T23:42:06;3.40;80.30
11246;DHT22;59870;50.106;8.580;2024-01-07T23:44:38;3.30;80.60
11246;DHT22;59870;50.106;8.580;2024-01-07T23:47:14;3.40;80.30
11246;DHT22;59870;50.106;8.580;2024-01-07T23:50:03;3.70;80.50
11246;DHT22;59870;50.106;8.580;2024-01-07T23:52:33;3.50;79.70
11246;DHT22;59870;50.106;8.580;2024-01-07T23:55:02;3.50;78.60
11246;DHT22;59870;50.106;8.580;2024-01-07T23:57:31;3.50;79.30
